createdAt,value
2023-05-01T00:02:27.446Z,1.08
2023-05-01T00:04:54.980Z,1.00
2023-05-01T00:07:22.610Z,1.20
2023-05-01T00:09:49.842Z,1.02
2023-05-01T00:12:17.295Z,1.08
2023-05-01T00:14:44.479Z,1.20
2023-05-01T00:17:11.766Z,1.08
2023-05-01T00:19:38.946Z,1.00
2023-05-01T00:22:06.184Z,0.80
2023-05-01T00:24:33.465Z,1.00
2023-05-01T00:27:00.792Z,1.00
2023-05-01T00:29:28.231Z,1.13
2023-05-01T00:31:55.883Z,1.10
2023-05-01T00:34:23.369Z,0.95
2023-05-01T00:36:50.868Z,1.20
2023-05-01T00:39:18.014Z,0.82
2023-05-01T00:41:45.175Z,1.10
2023-05-01T00:44:12.371Z,0.95
2023-05-01T00:46:39.671Z,0.90
2023-05-01T00:49:07.020Z,1.30
2023-05-01T00:51:34.564Z,0.93
2023-05-01T00:54:03.078Z,0.68
2023-05-01T00:56:32.093Z,0.90
2023-05-01T00:59:00.273Z,1.10
2023-05-01T01:01:29.071Z,0.80
2023-05-01T01:03:56.884Z,1.30
2023-05-01T01:06:49.977Z,1.10
2023-05-01T01:09:39.017Z,0.77
2023-05-01T01:12:25.154Z,0.80
2023-05-01T01:15:16.376Z,1.00
2023-05-01T01:17:46.358Z,0.93
2023-05-01T01:20:16.384Z,0.80
2023-05-01T01:22:48.710Z,0.88
2023-05-01T01:26:02.884Z,1.00
2023-05-01T01:29:02.277Z,1.00
2023-05-01T01:31:47.466Z,1.00
2023-05-01T01:34:28.449Z,0.90
2023-05-01T01:37:06.155Z,1.10
2023-05-01T01:39:36.032Z,0.90
2023-05-01T01:42:09.487Z,0.75
2023-05-01T01:45:00.377Z,0.93
2023-05-01T01:47:33.851Z,0.80
2023-05-01T01:50:05.338Z,0.88
2023-05-01T01:52:35.561Z,0.90
2023-05-01T01:55:18.022Z,1.10
2023-05-01T01:57:47.065Z,1.27
2023-05-01T02:00:16.671Z,1.15
2023-05-01T02:02:47.204Z,0.90
2023-05-01T02:07:48.093Z,0.98
2023-05-01T02:10:16.343Z,1.08
2023-05-01T02:12:47.049Z,0.95
2023-05-01T02:15:16.862Z,0.90
2023-05-01T02:17:44.241Z,0.93
2023-05-01T02:20:13.362Z,0.75
2023-05-01T02:22:41.391Z,1.20
2023-05-01T02:25:13.259Z,0.90
2023-05-01T02:28:02.151Z,1.00
2023-05-01T02:30:29.349Z,1.10
2023-05-01T02:32:58.059Z,1.10
2023-05-01T02:35:25.408Z,1.20
2023-05-01T02:37:52.937Z,1.08
2023-05-01T02:40:20.427Z,0.90
2023-05-01T02:42:49.985Z,1.00
2023-05-01T02:45:22.807Z,1.02
2023-05-01T02:47:56.010Z,1.10
2023-05-01T02:50:24.014Z,1.30
2023-05-01T02:52:51.966Z,1.40
2023-05-01T02:55:19.748Z,1.08
2023-05-01T02:57:47.395Z,1.25
2023-05-01T03:00:14.771Z,1.10
2023-05-01T03:02:42.517Z,1.30
2023-05-01T03:05:10.197Z,1.35
2023-05-01T03:07:37.454Z,1.40
2023-05-01T03:10:08.021Z,1.40
2023-05-01T03:15:02.470Z,1.40
2023-05-01T03:17:29.876Z,1.10
2023-05-01T03:19:57.407Z,1.38
2023-05-01T03:22:24.946Z,1.55
2023-05-01T03:24:52.208Z,1.52
2023-05-01T03:27:19.378Z,1.58
2023-05-01T03:29:47.363Z,1.30
2023-05-01T03:32:16.731Z,1.70
2023-05-01T03:34:45.022Z,1.50
2023-05-01T03:37:12.456Z,1.35
2023-05-01T03:39:39.790Z,1.67
2023-05-01T03:42:07.266Z,1.55
2023-05-01T03:44:34.625Z,1.33
2023-05-01T03:47:02.192Z,1.73
2023-05-01T03:49:29.354Z,1.77
2023-05-01T03:51:57.050Z,1.85
2023-05-01T03:54:24.796Z,1.25
2023-05-01T03:56:51.993Z,1.73
2023-05-01T03:59:19.327Z,1.60
2023-05-01T04:01:46.590Z,1.50
2023-05-01T04:04:14.235Z,1.42
2023-05-01T04:06:42.106Z,1.55
2023-05-01T04:09:09.443Z,1.80
2023-05-01T04:11:36.726Z,1.70
2023-05-01T04:14:04.316Z,1.70
2023-05-01T04:16:32.065Z,1.48
2023-05-01T04:18:59.282Z,1.52
2023-05-01T04:21:26.656Z,1.75
2023-05-01T04:23:53.802Z,1.80
2023-05-01T04:26:20.961Z,1.42
2023-05-01T04:28:48.157Z,1.27
2023-05-01T04:31:15.545Z,1.60
2023-05-01T04:33:42.827Z,1.58
2023-05-01T04:36:10.263Z,1.60
2023-05-01T04:38:37.625Z,1.80
2023-05-01T04:41:06.358Z,1.70
2023-05-01T04:43:33.483Z,1.48
2023-05-01T04:46:00.633Z,1.55
2023-05-01T04:48:27.689Z,1.80
2023-05-01T04:50:55.580Z,1.85
2023-05-01T04:53:22.629Z,1.70
2023-05-01T04:55:49.789Z,1.65
2023-05-01T04:58:17.009Z,1.20
2023-05-01T05:00:44.035Z,1.33
2023-05-01T05:03:11.369Z,1.52
2023-05-01T05:05:38.621Z,1.33
2023-05-01T05:08:06.761Z,1.92
2023-05-01T05:10:33.997Z,1.45
2023-05-01T05:13:01.310Z,1.80
2023-05-01T05:15:28.432Z,1.55
2023-05-01T05:17:56.613Z,1.27
2023-05-01T05:20:24.618Z,1.70
2023-05-01T05:22:52.157Z,1.50
2023-05-01T05:25:19.476Z,1.83
2023-05-01T05:27:46.735Z,1.70
2023-05-01T05:30:14.164Z,1.50
2023-05-01T05:32:41.302Z,1.52
2023-05-01T05:35:08.753Z,1.52
2023-05-01T05:37:35.925Z,1.63
2023-05-01T05:40:03.338Z,1.50
2023-05-01T05:42:31.469Z,1.08
2023-05-01T05:44:58.649Z,1.10
2023-05-01T05:47:26.038Z,1.40
2023-05-01T05:49:53.741Z,1.38
2023-05-01T05:52:21.556Z,1.50
2023-05-01T05:54:49.279Z,1.05
2023-05-01T05:57:16.470Z,1.10
2023-05-01T05:59:45.037Z,1.30
2023-05-01T06:02:12.275Z,1.20
2023-05-01T06:04:39.492Z,1.70
2023-05-01T06:07:06.608Z,1.48
2023-05-01T06:09:34.259Z,1.27
2023-05-01T06:12:02.148Z,1.30
2023-05-01T06:14:29.372Z,1.10
2023-05-01T06:16:56.675Z,1.15
2023-05-01T06:19:23.849Z,1.35
2023-05-01T06:21:51.037Z,1.50
2023-05-01T06:24:18.632Z,1.15
2023-05-01T06:26:45.808Z,1.30
2023-05-01T06:29:13.022Z,1.42
2023-05-01T06:31:40.303Z,1.40
2023-05-01T06:34:07.511Z,1.20
2023-05-01T06:36:34.728Z,1.08
2023-05-01T06:39:01.920Z,1.30
2023-05-01T06:41:29.120Z,1.13
2023-05-01T06:43:56.438Z,1.08
2023-05-01T06:46:23.650Z,0.98
2023-05-01T06:48:50.821Z,1.15
2023-05-01T06:51:18.168Z,1.35
2023-05-01T06:53:45.478Z,1.15
2023-05-01T06:56:12.744Z,0.85
2023-05-01T06:58:39.905Z,0.85
2023-05-01T07:01:08.129Z,1.17
2023-05-01T07:03:35.451Z,0.93
2023-05-01T07:06:02.923Z,0.95
2023-05-01T07:08:30.128Z,1.40
2023-05-01T07:10:57.385Z,1.00
2023-05-01T07:13:25.137Z,1.05
2023-05-01T07:15:54.346Z,1.10
2023-05-01T07:18:21.737Z,1.08
2023-05-01T07:20:50.566Z,0.75
2023-05-01T07:23:17.911Z,0.60
2023-05-01T07:25:46.324Z,0.60
2023-05-01T07:28:13.544Z,0.77
2023-05-01T07:30:40.664Z,0.95
2023-05-01T07:33:07.994Z,1.00
2023-05-01T07:35:35.253Z,0.70
2023-05-01T07:38:02.709Z,1.00
2023-05-01T07:40:29.876Z,0.90
2023-05-01T07:42:57.084Z,0.88
2023-05-01T07:45:24.311Z,0.80
2023-05-01T07:47:52.564Z,1.08
2023-05-01T07:50:19.931Z,0.90
2023-05-01T07:52:47.260Z,0.93
2023-05-01T07:55:14.647Z,0.88
2023-05-01T07:57:42.118Z,0.52
2023-05-01T08:00:09.926Z,0.93
2023-05-01T08:02:37.210Z,0.77
2023-05-01T08:05:04.756Z,0.63
2023-05-01T08:07:32.102Z,0.88
2023-05-01T08:10:00.798Z,1.10
2023-05-01T08:12:29.903Z,0.70
2023-05-01T08:14:57.054Z,0.70
2023-05-01T08:17:24.212Z,0.90
2023-05-01T08:19:51.431Z,1.10
2023-05-01T08:22:18.580Z,0.88
2023-05-01T08:24:45.917Z,0.70
2023-05-01T08:27:13.161Z,0.65
2023-05-01T08:29:40.388Z,0.80
2023-05-01T08:32:07.700Z,0.73
2023-05-01T08:34:34.925Z,0.50
2023-05-01T08:37:02.316Z,0.80
2023-05-01T08:39:29.592Z,1.02
2023-05-01T08:41:58.580Z,0.80
2023-05-01T08:44:29.141Z,0.90
2023-05-01T08:49:36.358Z,0.80
2023-05-01T08:52:06.394Z,0.90
2023-05-01T08:54:35.376Z,0.80
2023-05-01T08:57:04.756Z,0.63
2023-05-01T08:59:35.066Z,0.70
2023-05-01T09:02:06.818Z,0.50
2023-05-01T09:04:37.453Z,0.32
2023-05-01T09:09:33.021Z,0.63
2023-05-01T09:12:23.539Z,0.47
2023-05-01T09:15:36.455Z,0.60
2023-05-01T09:18:04.331Z,0.95
2023-05-01T09:20:32.717Z,0.70
2023-05-01T09:23:00.104Z,0.80
2023-05-01T09:25:27.389Z,0.93
2023-05-01T09:27:55.592Z,0.55
2023-05-01T09:30:36.968Z,0.95
2023-05-01T09:33:10.980Z,0.90
2023-05-01T09:35:50.459Z,0.70
2023-05-01T09:38:18.992Z,0.70
2023-05-01T09:40:47.024Z,0.70
2023-05-01T09:43:14.605Z,0.47
2023-05-01T09:45:43.226Z,1.10
2023-05-01T09:48:11.825Z,0.93
2023-05-01T09:50:42.710Z,0.50
2023-05-01T09:53:11.431Z,1.08
2023-05-01T09:55:38.702Z,0.80
2023-05-01T09:58:06.849Z,1.20
2023-05-01T10:00:49.520Z,0.70
2023-05-01T10:03:17.234Z,0.40
2023-05-01T10:05:44.796Z,1.13
2023-05-01T10:08:15.310Z,1.00
2023-05-01T10:13:18.329Z,0.50
2023-05-01T10:15:47.068Z,0.52
2023-05-01T10:18:15.597Z,0.70
2023-05-01T10:20:43.081Z,0.98
2023-05-01T10:23:11.274Z,1.20
2023-05-01T10:25:41.038Z,0.22
2023-05-01T10:28:10.360Z,1.23
2023-05-01T10:30:40.530Z,0.85
2023-05-01T10:33:08.163Z,0.95
2023-05-01T10:35:40.707Z,0.60
2023-05-01T10:38:11.739Z,1.20
2023-05-01T10:40:41.630Z,0.77
2023-05-01T10:43:32.745Z,0.95
2023-05-01T10:46:21.344Z,0.47
2023-05-01T10:48:51.637Z,0.70
2023-05-01T10:51:26.639Z,1.05
2023-05-01T10:54:12.703Z,0.77
2023-05-01T10:56:39.940Z,1.00
2023-05-01T10:59:07.616Z,1.00
2023-05-01T11:01:43.541Z,0.75
2023-05-01T11:04:22.675Z,0.90
2023-05-01T11:07:08.821Z,0.93
2023-05-01T11:09:43.260Z,0.88
2023-05-01T11:12:14.689Z,0.77
2023-05-01T11:15:08.903Z,0.73
2023-05-01T11:17:42.469Z,1.00
2023-05-01T11:20:11.981Z,0.80
2023-05-01T11:22:46.040Z,0.93
2023-05-01T11:25:22.108Z,0.80
2023-05-01T11:27:50.288Z,0.85
2023-05-01T11:30:17.489Z,0.73
2023-05-01T11:32:46.495Z,0.65
2023-05-01T11:35:28.455Z,1.10
2023-05-01T11:37:56.137Z,1.00
2023-05-01T11:40:23.417Z,0.95
2023-05-01T11:42:52.774Z,0.75
2023-05-01T11:45:20.828Z,0.63
2023-05-01T11:47:48.786Z,1.00
2023-05-01T11:50:17.219Z,1.00
2023-05-01T11:52:46.739Z,1.35
2023-05-01T11:55:14.011Z,1.27
2023-05-01T11:57:53.715Z,0.80
2023-05-01T12:00:38.530Z,1.50
2023-05-01T12:03:08.896Z,1.13
2023-05-01T12:08:24.213Z,1.35
2023-05-01T12:10:56.663Z,0.90
2023-05-01T12:13:24.799Z,1.10
2023-05-01T12:15:53.864Z,0.98
2023-05-01T12:18:24.262Z,1.10
2023-05-01T12:20:53.440Z,1.02
2023-05-01T12:23:39.580Z,2.17
2023-05-01T12:26:20.683Z,2.33
2023-05-01T12:29:01.672Z,1.50
2023-05-01T12:31:30.194Z,2.50
2023-05-01T12:34:02.254Z,3.90
2023-05-01T12:36:32.116Z,1.40
2023-05-01T12:39:04.288Z,1.90
2023-05-01T12:41:37.316Z,1.85
2023-05-01T12:44:23.373Z,1.90
2023-05-01T12:46:56.451Z,1.73
2023-05-01T12:49:24.870Z,1.80
2023-05-01T12:51:54.847Z,1.27
2023-05-01T12:54:28.864Z,1.50
2023-05-01T12:57:22.077Z,1.50
2023-05-01T13:00:00.539Z,1.60
2023-05-01T13:02:32.709Z,2.08
2023-05-01T13:05:12.497Z,1.90
2023-05-01T13:07:42.650Z,1.90
2023-05-01T13:10:11.026Z,1.55
2023-05-01T13:12:44.873Z,1.75
2023-05-01T13:15:24.206Z,1.70
2023-05-01T13:17:51.686Z,2.03
2023-05-01T13:20:27.246Z,1.73
2023-05-01T13:22:54.698Z,1.60
2023-05-01T13:25:22.717Z,1.40
2023-05-01T13:27:54.233Z,1.73
2023-05-01T13:30:32.382Z,2.13
2023-05-01T13:32:59.870Z,1.90
2023-05-01T13:35:27.637Z,1.65
2023-05-01T13:37:55.134Z,1.73
2023-05-01T13:40:26.329Z,1.95
2023-05-01T13:42:54.293Z,1.30
2023-05-01T13:45:21.659Z,1.70
2023-05-01T13:47:51.888Z,2.30
2023-05-01T13:50:19.540Z,1.90
2023-05-01T13:52:47.074Z,2.00
2023-05-01T13:55:14.914Z,1.95
2023-05-01T13:57:43.381Z,1.98
2023-05-01T14:00:17.856Z,2.13
2023-05-01T14:02:48.997Z,1.50
2023-05-01T14:05:17.004Z,1.60
2023-05-01T14:08:02.506Z,1.75
2023-05-01T14:10:29.903Z,1.60
2023-05-01T14:12:59.064Z,1.08
2023-05-01T14:15:26.395Z,1.48
2023-05-01T14:17:53.792Z,1.50
2023-05-01T14:20:21.063Z,1.85
2023-05-01T14:22:52.089Z,1.63
2023-05-01T14:25:27.511Z,1.95
2023-05-01T14:27:55.638Z,1.50
2023-05-01T14:30:28.879Z,2.00
2023-05-01T14:32:56.909Z,1.50
2023-05-01T14:35:25.058Z,1.50
2023-05-01T14:37:52.366Z,1.80
2023-05-01T14:40:26.613Z,2.00
2023-05-01T14:42:55.408Z,1.67
2023-05-01T14:45:22.610Z,1.83
2023-05-01T14:47:50.567Z,1.63
2023-05-01T14:50:23.133Z,1.50
2023-05-01T14:52:55.022Z,1.60
2023-05-01T14:55:29.845Z,1.70
2023-05-01T14:57:58.034Z,1.80
2023-05-01T15:00:26.526Z,1.60
2023-05-01T15:02:55.598Z,1.60
2023-05-01T15:05:24.226Z,1.80
2023-05-01T15:07:51.818Z,1.42
2023-05-01T15:10:19.112Z,1.80
2023-05-01T15:12:47.860Z,1.58
2023-05-01T15:15:15.095Z,1.80
2023-05-01T15:17:42.281Z,1.50
2023-05-01T15:20:10.841Z,1.45
2023-05-01T15:22:39.575Z,1.13
2023-05-01T15:25:10.035Z,1.25
2023-05-01T15:27:37.170Z,1.05
2023-05-01T15:30:05.581Z,1.40
2023-05-01T15:32:32.917Z,1.65
2023-05-01T15:35:00.497Z,1.20
2023-05-01T15:37:27.864Z,1.25
2023-05-01T15:39:55.170Z,1.17
2023-05-01T15:42:22.366Z,1.70
2023-05-01T15:44:49.532Z,1.10
2023-05-01T15:47:16.866Z,1.13
2023-05-01T15:49:44.002Z,1.55
2023-05-01T15:52:11.562Z,1.50
2023-05-01T15:54:38.908Z,1.30
2023-05-01T15:57:07.825Z,1.58
2023-05-01T15:59:35.055Z,1.55
2023-05-01T16:02:02.310Z,1.60
2023-05-01T16:04:29.472Z,1.50
2023-05-01T16:06:56.642Z,1.75
2023-05-01T16:09:31.217Z,1.40
2023-05-01T16:11:59.819Z,1.63
2023-05-01T16:14:27.129Z,1.50
2023-05-01T16:16:54.368Z,1.65
2023-05-01T16:19:21.661Z,1.70
2023-05-01T16:21:49.018Z,1.30
2023-05-01T16:24:16.296Z,1.40
2023-05-01T16:26:44.431Z,2.00
2023-05-01T16:29:12.284Z,1.27
2023-05-01T16:31:47.462Z,1.13
2023-05-01T16:34:15.967Z,1.50
2023-05-01T16:36:43.281Z,1.10
2023-05-01T16:39:15.368Z,1.10
2023-05-01T16:41:47.233Z,1.50
2023-05-01T16:44:16.556Z,1.45
2023-05-01T16:46:56.415Z,1.30
2023-05-01T16:49:25.538Z,1.27
2023-05-01T16:51:56.796Z,1.40
2023-05-01T16:54:25.553Z,1.40
2023-05-01T16:56:52.834Z,1.20
2023-05-01T16:59:19.966Z,1.50
2023-05-01T17:01:47.251Z,1.05
2023-05-01T17:04:15.515Z,1.25
2023-05-01T17:06:42.804Z,1.27
2023-05-01T17:09:10.993Z,1.27
2023-05-01T17:11:38.261Z,1.20
2023-05-01T17:14:06.166Z,1.15
2023-05-01T17:16:33.808Z,1.10
2023-05-01T17:19:04.622Z,1.20
2023-05-01T17:21:33.099Z,1.48
2023-05-01T17:24:00.220Z,1.30
2023-05-01T17:26:27.383Z,1.33
2023-05-01T17:28:54.523Z,1.30
2023-05-01T17:31:22.669Z,1.38
2023-05-01T17:33:50.089Z,1.10
2023-05-01T17:36:17.125Z,1.58
2023-05-01T17:38:44.284Z,1.13
2023-05-01T17:41:11.287Z,1.30
2023-05-01T17:43:38.392Z,1.27
2023-05-01T17:46:06.555Z,1.00
2023-05-01T17:48:33.646Z,1.33
2023-05-01T17:51:00.826Z,1.60
2023-05-01T17:53:28.072Z,1.40
2023-05-01T17:55:55.217Z,1.60
2023-05-01T17:58:22.406Z,1.05
2023-05-01T18:00:50.022Z,1.70
2023-05-01T18:03:17.483Z,1.40
2023-05-01T18:05:45.242Z,1.60
2023-05-01T18:08:12.457Z,2.00
2023-05-01T18:10:39.619Z,1.90
2023-05-01T18:13:06.728Z,1.55
2023-05-01T18:15:36.615Z,2.20
2023-05-01T18:18:03.991Z,2.20
2023-05-01T18:20:31.077Z,1.85
2023-05-01T18:22:58.106Z,1.80
2023-05-01T18:25:25.254Z,1.60
2023-05-01T18:27:52.457Z,1.73
2023-05-01T18:30:19.587Z,1.50
2023-05-01T18:32:48.145Z,1.20
2023-05-01T18:35:20.688Z,1.40
2023-05-01T18:37:47.826Z,1.65
2023-05-01T18:40:14.917Z,1.55
2023-05-01T18:42:42.411Z,1.88
2023-05-01T18:45:14.301Z,1.55
2023-05-01T18:47:41.511Z,1.70
2023-05-01T18:50:09.837Z,1.73
2023-05-01T18:52:37.352Z,1.92
2023-05-01T18:55:04.837Z,2.10
2023-05-01T18:57:32.730Z,1.80
2023-05-01T19:00:01.524Z,2.50
2023-05-01T19:02:29.141Z,1.80
2023-05-01T19:04:57.793Z,1.70
2023-05-01T19:07:26.626Z,1.33
2023-05-01T19:09:54.005Z,1.40
2023-05-01T19:12:21.422Z,1.20
2023-05-01T19:14:48.444Z,1.45
2023-05-01T19:17:15.568Z,1.45
2023-05-01T19:19:42.747Z,1.38
2023-05-01T19:22:09.873Z,1.60
2023-05-01T19:24:36.989Z,1.70
2023-05-01T19:27:04.330Z,1.42
2023-05-01T19:29:32.150Z,1.45
2023-05-01T19:32:02.000Z,1.27
2023-05-01T19:34:29.487Z,1.33
2023-05-01T19:37:00.438Z,1.17
2023-05-01T19:39:29.143Z,1.30
2023-05-01T19:41:56.530Z,1.50
2023-05-01T19:44:23.670Z,1.60
2023-05-01T19:46:50.980Z,1.30
2023-05-01T19:49:18.125Z,1.35
2023-05-01T19:51:45.894Z,1.50
2023-05-01T19:54:12.993Z,1.58
2023-05-01T19:56:40.140Z,0.95
2023-05-01T19:59:07.299Z,1.25
2023-05-01T20:01:35.082Z,1.70
2023-05-01T20:04:02.849Z,1.25
2023-05-01T20:06:30.298Z,1.40
2023-05-01T20:08:57.422Z,1.13
2023-05-01T20:11:24.578Z,1.42
2023-05-01T20:13:51.687Z,1.60
2023-05-01T20:16:18.849Z,1.48
2023-05-01T20:18:46.257Z,1.27
2023-05-01T20:21:13.331Z,1.60
2023-05-01T20:23:40.526Z,1.05
2023-05-01T20:26:07.569Z,1.20
2023-05-01T20:28:34.661Z,1.35
2023-05-01T20:31:02.487Z,1.38
2023-05-01T20:33:29.630Z,1.55
2023-05-01T20:35:56.823Z,1.38
2023-05-01T20:38:24.507Z,1.25
2023-05-01T20:40:51.959Z,1.40
2023-05-01T20:43:19.176Z,1.30
2023-05-01T20:45:46.400Z,1.42
2023-05-01T20:48:13.638Z,1.30
2023-05-01T20:50:43.866Z,1.35
2023-05-01T20:53:11.161Z,1.30
2023-05-01T20:55:38.280Z,1.45
2023-05-01T20:58:06.332Z,1.02
2023-05-01T21:00:34.078Z,1.15
2023-05-01T21:03:01.621Z,1.23
2023-05-01T21:05:29.099Z,1.75
2023-05-01T21:07:58.426Z,1.45
2023-05-01T21:10:25.680Z,1.27
2023-05-01T21:12:58.801Z,1.50
2023-05-01T21:15:27.106Z,1.25
2023-05-01T21:17:54.264Z,1.67
2023-05-01T21:20:35.608Z,0.90
2023-05-01T21:23:03.053Z,1.35
2023-05-01T21:25:32.132Z,1.10
2023-05-01T21:28:03.692Z,1.10
2023-05-01T21:30:36.175Z,1.30
2023-05-01T21:33:06.468Z,1.25
2023-05-01T21:35:34.144Z,1.45
2023-05-01T21:38:01.465Z,1.30
2023-05-01T21:40:28.820Z,1.30
2023-05-01T21:42:56.482Z,1.55
2023-05-01T21:45:24.723Z,1.30
2023-05-01T21:47:52.300Z,1.40
2023-05-01T21:50:21.506Z,1.60
2023-05-01T21:52:50.028Z,1.17
2023-05-01T21:55:26.096Z,1.20
2023-05-01T21:57:55.960Z,1.48
2023-05-01T22:00:23.402Z,1.40
2023-05-01T22:02:52.020Z,1.50
2023-05-01T22:05:22.728Z,1.40
2023-05-01T22:07:52.339Z,1.13
2023-05-01T22:10:19.827Z,1.42
2023-05-01T22:12:49.603Z,1.58
2023-05-01T22:15:16.867Z,1.00
2023-05-01T22:17:44.677Z,1.35
2023-05-01T22:20:12.487Z,1.20
2023-05-01T22:22:41.391Z,1.30
2023-05-01T22:25:10.174Z,1.60
2023-05-01T22:27:38.133Z,1.55
2023-05-01T22:30:06.280Z,1.25
2023-05-01T22:32:34.067Z,1.42
2023-05-01T22:35:01.335Z,1.27
2023-05-01T22:37:28.489Z,1.20
2023-05-01T22:39:55.767Z,1.23
2023-05-01T22:42:23.460Z,1.38
2023-05-01T22:44:50.651Z,1.20
2023-05-01T22:47:17.818Z,1.27
2023-05-01T22:49:45.149Z,1.15
2023-05-01T22:52:12.392Z,1.25
2023-05-01T22:54:39.588Z,1.20
2023-05-01T22:57:06.728Z,1.60
2023-05-01T22:59:33.989Z,1.42
2023-05-01T23:02:04.160Z,1.20
2023-05-01T23:04:32.521Z,1.15
2023-05-01T23:06:59.789Z,1.25
2023-05-01T23:09:26.990Z,1.40
2023-05-01T23:11:54.305Z,1.15
2023-05-01T23:14:21.479Z,1.20
2023-05-01T23:16:48.700Z,1.25
2023-05-01T23:19:21.885Z,1.08
2023-05-01T23:21:50.260Z,1.38
2023-05-01T23:24:19.931Z,1.20
2023-05-01T23:26:47.567Z,1.23
2023-05-01T23:29:16.252Z,1.60
2023-05-01T23:31:46.756Z,1.70
2023-05-01T23:36:45.347Z,0.95
2023-05-01T23:39:12.719Z,1.40
2023-05-01T23:41:40.229Z,1.45
2023-05-01T23:44:08.094Z,1.65
2023-05-01T23:46:36.045Z,1.30
2023-05-01T23:49:03.447Z,1.40
2023-05-01T23:51:31.730Z,1.30
2023-05-01T23:53:59.303Z,1.52
2023-05-01T23:56:26.723Z,1.40
2023-05-01T23:58:53.867Z,1.70
